Aeroporto :
LOGIN :

Iscrizione | Disclaimer

   EN    FR    IT 

 










Sommario :    VFR   VFR Marginale   IFR   IFR Intensivo   IFR Molto Intensivo
Visibilità : 
Base nubi : 
>= 8 km
>= 3000ft
5 / 8 km
1000 / 3000 ft
1500m / 5 km
500 / 1000 ft
800 / 1500m
200 / 500 ft
< 800m
< 200 ft
Simboli :   Temporali  Nebbia  Neve Forte  Precipitazioni Forti  Vento > 20 kt
SIGMETs :   Varie  Temporali  Ghiacco  Turbolenza  Onda orograficha  Ceneri Vulcaniche






- Altitudine del aeroporto : 19 ft
- Codice IATA : VAA


EFVA - Vaasa

ULTIMO METAR :
  • 111750Z AUTO 02003KT CAVOK 16/07 Q1025

METARs OBSOLETI :
  • 111720Z AUTO 01005KT CAVOK 17/06 Q1025
  • 111650Z AUTO 01005KT CAVOK 17/06 Q1026
  • 111620Z AUTO 02006KT CAVOK 18/06 Q1026
  • 111550Z AUTO 01007KT CAVOK 18/06 Q1026
  • 111520Z AUTO 02007KT CAVOK 18/05 Q1026

TAF TAF EFVA
Valido dal 11 a 18 ore il 12 a 18 ore UTC


111721Z 1118/1218 01006KT CAVOK
PROB40 1201/1203 1500 BCFG
BECMG 1210/1212 26010KT
TEMPO 1215/1218 FEW040CB



MetMap, La meteo Aeronautica in un colpo d'occhio ! - Copyright ORBIFLY Dicembre 2007 - Disclaimer

ORBIFLY MET'MAP TEAM :

Programmazione e sviluppo : Alexandra Zaïnal
Concezione : Baudouin d'Aumeries
Aiuto per la programmazione : Marc-Olivier Méhu
Supporto tecnico e logistico : Manuel Goepfert
Aiuto per la traduzione : Arnaldo La Scala

Contatto : metmap@orbifly.com




FONTI E CREDITI :

   NOAA